< < Back
Terminal Aerodrome Forecast


Current Version              Previous Versions:   1  2  3  4  5  6  7  8  9  

Terminal Aerodrome Forecast

751
FTUS42 KGSP 271133
TAFAND
TAF
KAND 271133Z 2712/2812 VRB03KT P6SM BKN050
     FM271500 26003KT P6SM FEW050
     FM280300 05006KT P6SM SCT250=

Latest METAR

417
SAUS70 KWBC 281000 RRC
MTRAND
METAR KAND 280956Z AUTO 06005KT 10SM CLR 10/03 A2994 RMK AO2 SLP133
T01000028


USA.gov is the U.S. government's official web portal to all federal, state and local government web resources and services.